Greenville, Missouri
Current Conditions -  °F | °C
As of 11:53 AM on Monday 24 Nov 2014 (Local Time) from KPOF Reporting Station
Clear Clear  
Wind Chill: 11°   Ceiling: Unl
Heat Index: 11°   Visibility: 10mi
Dew Point: -2°   Wind: 15mph
Humidity: 41%   Direction: 250°WSW
Pressure: 29.78"   Gusts: NA
Location:  37.13°N, 90.45°W
Report Text: KPOF 241753Z AUTO 25013KT 10SM CLR 11/M02 A2978 RMK AO2 SLP083 T01061022 10106 20067 50017
Loading
Personal Weather Stations






























Interactive Weather Map New forecast layout! Learn more

10-Day Weather Forecast

Advertisements
Track Severe Weather on mobile